Time;durP1;ratioP1;P1;durP2;ratioP2;P2;SDS_P1;SDS_P2;PMS_P1;PMS_P2;Temp;Humidity;BMP_temperature;BMP_pressure;BME280_temperature;BME280_humidity;BME280_pressure;Samples;Min_cycle;Max_cycle;Signal;HPM_P1;HPM_P2
2021/12/28 00:00:00;;;;;;;15.58;9.88;;;;;;;-5.82;75.02;100777.26;1751454;81;21011;-65
2021/12/28 00:02:27;;;;;;;17.42;10.90;;;;;;;-5.83;74.90;100780.26;1774824;79;21070;-65
2021/12/28 00:04:54;;;;;;;17.98;10.43;;;;;;;-5.85;74.81;100772.99;1787779;79;21030;-65
2021/12/28 00:07:22;;;;;;;18.27;11.57;;;;;;;-5.83;74.83;100769.97;1774914;79;20936;-67
2021/12/28 00:09:48;;;;;;;18.50;11.20;;;;;;;-5.83;74.70;100781.98;1824528;78;21017;-63
2021/12/28 00:12:15;;;;;;;22.00;12.88;;;;;;;-5.87;74.60;100777.30;1814797;77;21415;-64
2021/12/28 00:15:01;;;;;;;17.55;11.60;;;;;;;-5.88;74.53;100780.73;1760563;80;20978;-64
2021/12/28 00:19:58;;;;;;;19.30;12.15;;;;;;;-5.95;74.40;100772.66;1758927;80;21490;-65
2021/12/28 00:22:24;;;;;;;16.25;10.15;;;;;;;-5.97;74.30;100767.11;1758104;80;21112;-65
2021/12/28 00:24:51;;;;;;;16.30;10.20;;;;;;;-5.95;74.30;100767.95;1753654;81;20999;-64
2021/12/28 00:27:17;;;;;;;14.58;9.85;;;;;;;-5.95;74.21;100773.09;1752306;81;21023;-64
2021/12/28 00:29:44;;;;;;;17.07;10.30;;;;;;;-5.92;74.21;100766.63;1792773;78;20979;-64
2021/12/28 00:32:10;;;;;;;13.90;9.43;;;;;;;-5.89;74.21;100773.00;1742209;81;22459;-64
2021/12/28 00:34:38;;;;;;;15.80;10.40;;;;;;;-5.89;74.13;100766.58;1761217;80;21074;-64
2021/12/28 00:37:04;;;;;;;15.80;10.15;;;;;;;-5.87;74.14;100772.59;1746640;81;21513;-64
2021/12/28 00:39:30;;;;;;;16.55;10.28;;;;;;;-5.84;74.05;100772.13;1762566;80;21010;-65
2021/12/28 00:41:57;;;;;;;15.58;9.70;;;;;;;-5.85;73.98;100784.56;1769626;78;21408;-66
2021/12/28 00:44:23;;;;;;;15.55;10.10;;;;;;;-5.82;73.96;100767.81;1774610;80;21793;-64
2021/12/28 00:46:49;;;;;;;16.55;10.45;;;;;;;-5.82;73.85;100781.11;1789890;80;22292;-65
2021/12/28 00:49:17;;;;;;;17.40;9.63;;;;;;;-5.84;73.80;100777.27;1746856;81;20955;-65
2021/12/28 00:51:43;;;;;;;17.00;10.15;;;;;;;-5.84;73.71;100780.28;1772956;80;20956;-65
2021/12/28 00:54:10;;;;;;;16.05;9.55;;;;;;;-5.86;73.67;100789.30;1761826;78;20986;-64
2021/12/28 00:56:36;;;;;;;13.80;9.90;;;;;;;-5.84;73.66;100778.55;1789995;80;21358;-65
2021/12/28 00:59:03;;;;;;;14.50;9.03;;;;;;;-5.81;73.64;100782.82;1789395;80;20976;-64
2021/12/28 01:01:29;;;;;;;14.75;10.13;;;;;;;-5.81;73.50;100786.24;1772359;80;21025;-64
2021/12/28 01:03:56;;;;;;;13.80;9.43;;;;;;;-5.83;73.44;100781.55;1762978;80;21130;-65
2021/12/28 01:06:24;;;;;;;15.43;9.95;;;;;;;-5.82;73.42;100784.53;1761553;80;21456;-64
2021/12/28 01:08:50;;;;;;;16.87;10.35;;;;;;;-5.81;73.40;100787.53;1741909;80;21836;-65
2021/12/28 01:11:17;;;;;;;13.65;9.28;;;;;;;-5.79;73.37;100788.40;1762571;81;20957;-64
2021/12/28 01:13:43;;;;;;;14.53;9.33;;;;;;;-5.74;73.39;100779.78;1764896;80;20943;-65
2021/12/28 01:16:13;;;;;;;15.53;9.15;;;;;;;-5.71;73.30;100778.47;1782806;80;20980;-65
2021/12/28 01:18:40;;;;;;;12.78;9.33;;;;;;;-5.71;73.14;100770.75;1764167;80;21063;-66
2021/12/28 01:21:07;;;;;;;17.75;11.03;;;;;;;-5.73;73.01;100775.06;1761807;80;23702;-65
2021/12/28 01:23:35;;;;;;;15.60;10.10;;;;;;;-5.75;72.98;100775.08;1745333;80;20932;-66
2021/12/28 01:26:01;;;;;;;14.53;9.45;;;;;;;-5.75;72.94;100771.22;1764944;79;21010;-65
2021/12/28 01:28:28;;;;;;;13.25;9.05;;;;;;;-5.73;72.85;100764.77;1772532;79;21475;-66
2021/12/28 01:30:54;;;;;;;13.18;9.43;;;;;;;-5.73;72.79;100762.20;1794039;80;20943;-65
2021/12/28 01:33:21;;;;;;;14.00;9.30;;;;;;;-5.72;72.75;100767.76;1790741;79;21792;-65
2021/12/28 01:35:47;;;;;;;12.05;8.15;;;;;;;-5.70;72.73;100761.73;1763681;81;22294;-64
2021/12/28 01:38:14;;;;;;;13.50;8.75;;;;;;;-5.68;72.65;100757.89;1744982;80;20949;-65
2021/12/28 01:40:41;;;;;;;13.83;9.05;;;;;;;-5.70;72.63;100756.59;1777239;80;21038;-65
2021/12/28 01:43:17;;;;;;;12.63;8.48;;;;;;;-5.67;72.56;100764.73;1750123;81;21090;-65
2021/12/28 01:45:51;;;;;;;13.00;9.33;;;;;;;-5.67;72.53;100766.02;1740706;81;21809;-65
2021/12/28 01:48:23;;;;;;;14.90;8.88;;;;;;;-5.66;72.49;100760.86;1777632;80;21041;-65
2021/12/28 01:50:52;;;;;;;11.78;7.75;;;;;;;-5.63;72.47;100758.26;1737796;81;21046;-65
2021/12/28 01:53:18;;;;;;;11.35;7.70;;;;;;;-5.61;72.41;100754.38;1795062;80;20983;-65
2021/12/28 01:55:49;;;;;;;13.03;8.00;;;;;;;-5.61;72.33;100752.66;1758944;81;20919;-65
2021/12/28 01:58:17;;;;;;;12.53;8.75;;;;;;;-5.62;72.28;100756.54;1765742;80;21449;-65
2021/12/28 02:00:46;;;;;;;14.30;9.40;;;;;;;-5.62;72.27;100756.54;1727941;81;21562;-65
2021/12/28 02:03:14;;;;;;;13.30;9.23;;;;;;;-5.63;72.17;100751.83;1777179;80;20931;-65
2021/12/28 02:05:42;;;;;;;12.68;8.13;;;;;;;-5.63;72.12;100740.68;1763573;81;21014;-65
2021/12/28 02:08:12;;;;;;;13.08;9.05;;;;;;;-5.65;72.14;100741.98;1794325;78;21002;-65
2021/12/28 02:10:38;;;;;;;13.13;8.58;;;;;;;-5.65;72.11;100745.84;1773154;80;21831;-66
2021/12/28 02:13:05;;;;;;;13.45;8.73;;;;;;;-5.65;72.11;100744.55;1791086;80;20912;-65
2021/12/28 02:15:34;;;;;;;14.00;9.75;;;;;;;-5.65;72.11;100741.98;1727917;83;21323;-65
2021/12/28 02:18:01;;;;;;;13.05;8.38;;;;;;;-5.64;72.10;100739.83;1751652;80;21019;-65
2021/12/28 02:20:28;;;;;;;12.07;8.35;;;;;;;-5.61;72.07;100737.22;1765760;80;21081;-64
2021/12/28 02:22:56;;;;;;;11.12;8.05;;;;;;;-5.60;72.01;100733.78;1764358;80;22139;-66
2021/12/28 02:25:22;;;;;;;12.23;8.08;;;;;;;-5.62;71.95;100733.38;1789414;80;21019;-66
2021/12/28 02:27:50;;;;;;;11.95;8.73;;;;;;;-5.64;71.88;100732.11;1728543;81;22415;-66
2021/12/28 02:30:18;;;;;;;14.38;8.75;;;;;;;-5.63;71.90;100731.67;1743423;81;21071;-66
2021/12/28 02:32:46;;;;;;;12.73;8.45;;;;;;;-5.62;71.92;100725.23;1777407;80;21481;-66
2021/12/28 02:35:19;;;;;;;12.18;7.70;;;;;;;-5.63;71.81;100728.66;1742050;81;22465;-65
2021/12/28 02:37:46;;;;;;;13.83;8.80;;;;;;;-5.64;71.76;100726.11;1718462;81;21533;-66
2021/12/28 02:40:16;;;;;;;10.63;7.72;;;;;;;-5.65;71.76;100725.69;1739461;82;20968;-66
2021/12/28 02:42:43;;;;;;;13.50;9.08;;;;;;;-5.66;71.75;100713.27;1784451;80;21046;-66
2021/12/28 02:45:14;;;;;;;13.75;9.55;;;;;;;-5.68;71.67;100710.29;1731852;81;21004;-66
2021/12/28 02:47:44;;;;;;;13.28;8.88;;;;;;;-5.70;71.65;100704.27;1781972;80;22459;-64
2021/12/28 02:50:16;;;;;;;14.58;9.75;;;;;;;-5.71;71.69;100703.42;1793978;79;20975;-65
2021/12/28 02:52:43;;;;;;;13.08;9.15;;;;;;;-5.71;71.69;100700.00;1765984;80;21381;-66
2021/12/28 02:55:12;;;;;;;18.42;10.03;;;;;;;-5.68;71.77;100701.28;1788925;80;21039;-66
2021/12/28 02:57:49;;;;;;;13.70;9.35;;;;;;;-5.66;71.72;100698.26;1739912;81;21041;-66
2021/12/28 03:00:39;;;;;;;14.53;10.15;;;;;;;-5.67;71.64;100687.55;1764820;80;22517;-64
2021/12/28 03:03:18;;;;;;;15.75;10.03;;;;;;;-5.67;71.65;100686.27;1738848;81;20916;-66
2021/12/28 03:05:47;;;;;;;20.27;13.30;;;;;;;-5.69;71.58;100687.97;1783297;80;20912;-66
2021/12/28 03:08:14;;;;;;;19.27;12.60;;;;;;;-5.70;71.60;100684.55;1777099;80;20936;-66
2021/12/28 03:10:43;;;;;;;15.28;9.78;;;;;;;-5.66;71.60;100681.53;1786489;80;21058;-67
2021/12/28 03:13:21;;;;;;;12.40;8.83;;;;;;;-5.64;71.47;100682.37;1775044;80;22524;-67
2021/12/28 03:15:47;;;;;;;12.53;8.53;;;;;;;-5.65;71.35;100675.52;1763033;81;21018;-66
2021/12/28 03:18:14;;;;;;;14.70;9.10;;;;;;;-5.66;71.31;100672.53;1733567;81;20930;-66
2021/12/28 03:20:40;;;;;;;14.15;9.40;;;;;;;-5.64;71.29;100666.49;1763735;81;20975;-66
2021/12/28 03:23:07;;;;;;;14.23;9.30;;;;;;;-5.63;71.23;100669.48;1732173;80;21059;-66
2021/12/28 03:25:35;;;;;;;15.05;10.05;;;;;;;-5.63;71.10;100660.91;1770361;81;21407;-65
2021/12/28 03:28:02;;;;;;;14.50;9.60;;;;;;;-5.66;70.99;100655.37;1762319;81;20998;-66
2021/12/28 03:30:29;;;;;;;16.93;10.45;;;;;;;-5.67;70.97;100655.39;1765199;80;21003;-66
2021/12/28 03:32:58;;;;;;;14.65;9.58;;;;;;;-5.67;70.97;100654.95;1764446;80;20967;-66
2021/12/28 03:35:24;;;;;;;13.62;8.58;;;;;;;-5.64;71.01;100651.48;1733950;82;21007;-66
2021/12/28 03:37:50;;;;;;;16.85;9.35;;;;;;;-5.61;70.98;100650.16;1772311;79;21789;-67
2021/12/28 03:40:17;;;;;;;14.78;9.45;;;;;;;-5.60;70.91;100654.01;1772781;81;20859;-65
2021/12/28 03:42:44;;;;;;;13.88;8.68;;;;;;;-5.60;70.83;100646.29;1789497;80;20972;-66
2021/12/28 03:45:11;;;;;;;15.90;9.55;;;;;;;-5.59;70.76;100648.45;1733405;81;21004;-66
2021/12/28 03:47:38;;;;;;;13.83;9.00;;;;;;;-5.61;70.70;100639.88;1783673;80;21021;-66
2021/12/28 03:50:06;;;;;;;16.00;10.18;;;;;;;-5.61;70.69;100632.16;1773401;81;21812;-66
2021/12/28 03:52:33;;;;;;;14.78;10.05;;;;;;;-5.60;70.72;100634.70;1743143;81;20967;-65
2021/12/28 03:55:00;;;;;;;15.78;9.80;;;;;;;-5.55;70.73;100639.39;1716622;82;21085;-65
2021/12/28 03:57:26;;;;;;;17.12;10.08;;;;;;;-5.52;70.66;100637.22;1796548;79;20967;-66
2021/12/28 03:59:53;;;;;;;16.10;10.40;;;;;;;-5.52;70.50;100638.50;1762328;81;21353;-65
2021/12/28 04:02:19;;;;;;;14.58;9.38;;;;;;;-5.53;70.38;100638.09;1788590;79;21737;-65
2021/12/28 04:04:47;;;;;;;14.63;10.32;;;;;;;-5.52;70.34;100635.92;1747159;81;20963;-67
2021/12/28 04:07:18;;;;;;;13.72;8.68;;;;;;;-5.53;70.26;100627.80;1788927;80;21374;-66
2021/12/28 04:12:18;;;;;;;12.80;9.20;;;;;;;-5.55;70.00;100615.38;1790055;80;20927;-66
2021/12/28 04:14:44;;;;;;;16.97;10.25;;;;;;;-5.56;70.00;100610.67;1713207;82;22469;-66
2021/12/28 04:17:11;;;;;;;15.68;10.25;;;;;;;-5.56;69.81;100613.67;1777398;80;20976;-66
2021/12/28 04:19:38;;;;;;;13.58;9.63;;;;;;;-5.55;69.88;100615.38;1746300;81;21094;-65
2021/12/28 04:22:04;;;;;;;17.23;10.82;;;;;;;-5.54;69.79;100615.36;1764176;80;21010;-66
2021/12/28 04:24:32;;;;;;;14.40;10.32;;;;;;;-5.53;69.75;100608.05;1759786;81;20994;-67
2021/12/28 04:26:58;;;;;;;14.87;9.70;;;;;;;-5.50;69.72;100608.45;1756699;81;21867;-66
2021/12/28 04:29:25;;;;;;;16.32;11.20;;;;;;;-5.47;69.67;100607.16;1760224;81;20984;-66
2021/12/28 04:31:52;;;;;;;13.75;9.45;;;;;;;-5.47;69.57;100595.57;1760269;81;21015;-66
2021/12/28 04:34:18;;;;;;;16.45;9.98;;;;;;;-5.45;69.40;100586.11;1739936;81;21040;-66
2021/12/28 04:36:45;;;;;;;17.80;10.65;;;;;;;-5.49;69.22;100591.73;1723035;81;20964;-66
2021/12/28 04:39:11;;;;;;;14.87;10.03;;;;;;;-5.50;69.14;100597.75;1755387;81;21844;-66
2021/12/28 04:41:38;;;;;;;14.55;9.98;;;;;;;-5.51;69.07;100597.73;1739248;82;21521;-66
2021/12/28 04:44:06;;;;;;;13.18;9.45;;;;;;;-5.52;68.98;100599.90;1754401;81;20952;-67
2021/12/28 04:46:32;;;;;;;18.12;11.10;;;;;;;-5.52;69.04;100597.33;1736400;81;20982;-65
2021/12/28 04:48:59;;;;;;;15.58;10.28;;;;;;;-5.54;68.82;100596.06;1731309;81;21059;-65
2021/12/28 04:51:26;;;;;;;13.05;8.70;;;;;;;-5.53;68.80;100598.20;1757494;81;22541;-65
2021/12/28 04:53:54;;;;;;;12.13;9.10;;;;;;;-5.50;68.84;100597.75;1757096;81;20953;-65
2021/12/28 04:56:22;;;;;;;13.68;8.88;;;;;;;-5.48;68.76;100592.58;1759006;81;21035;-66
2021/12/28 04:58:49;;;;;;;17.25;10.60;;;;;;;-5.47;68.76;100594.28;1735942;81;20980;-65
2021/12/28 05:01:17;;;;;;;18.37;10.72;;;;;;;-5.48;68.72;100597.30;1745635;81;20945;-65
2021/12/28 05:03:44;;;;;;;16.15;10.63;;;;;;;-5.47;68.67;100602.86;1752968;81;21823;-65
2021/12/28 05:06:10;;;;;;;14.75;10.03;;;;;;;-5.44;68.63;100598.54;1756634;81;21467;-64
2021/12/28 05:08:39;;;;;;;16.30;11.03;;;;;;;-5.42;68.67;100595.51;1739341;81;21090;-64
2021/12/28 05:11:06;;;;;;;16.42;10.65;;;;;;;-5.43;68.64;100591.23;1748311;81;21392;-64
2021/12/28 05:13:32;;;;;;;15.85;11.00;;;;;;;-5.44;68.67;100592.95;1734242;81;20992;-63
2021/12/28 05:16:00;;;;;;;15.53;10.90;;;;;;;-5.44;68.62;100594.67;1730145;83;22635;-63
2021/12/28 05:18:26;;;;;;;16.40;11.10;;;;;;;-5.43;68.56;100595.09;1747054;81;20959;-66
2021/12/28 05:20:53;;;;;;;17.12;11.12;;;;;;;-5.47;68.46;100590.42;1760197;81;20965;-64
2021/12/28 05:23:19;;;;;;;15.55;9.98;;;;;;;-5.48;68.51;100588.72;1739998;80;21055;-66
2021/12/28 05:25:46;;;;;;;17.42;11.10;;;;;;;-5.47;68.59;100590.42;1752871;81;21122;-67
2021/12/28 05:28:13;;;;;;;14.33;10.32;;;;;;;-5.46;68.57;100590.84;1747196;81;22625;-69
2021/12/28 05:30:41;;;;;;;16.73;10.98;;;;;;;-5.46;68.61;100594.70;1747276;81;21047;-69
2021/12/28 05:33:07;;;;;;;16.37;11.18;;;;;;;-5.45;68.62;100589.12;1745869;81;20999;-68
2021/12/28 05:35:33;;;;;;;13.38;9.65;;;;;;;-5.43;68.60;100593.80;1745488;81;20961;-68
2021/12/28 05:38:00;;;;;;;16.10;11.05;;;;;;;-5.44;68.52;100588.24;1768697;81;21458;-68
2021/12/28 05:40:26;;;;;;;15.72;10.18;;;;;;;-5.44;68.50;100588.24;1743864;79;21817;-69
2021/12/28 05:42:53;;;;;;;15.40;10.85;;;;;;;-5.45;68.33;100584.82;1753806;81;20952;-67
2021/12/28 05:45:19;;;;;;;16.57;10.30;;;;;;;-5.47;68.26;100586.13;1747578;81;21094;-67
2021/12/28 05:47:46;;;;;;;18.25;11.18;;;;;;;-5.50;68.08;100584.00;1757150;80;20979;-65
2021/12/28 05:50:12;;;;;;;19.65;11.45;;;;;;;-5.49;68.16;100587.02;1756834;80;21053;-66
2021/12/28 05:52:39;;;;;;;17.95;11.83;;;;;;;-5.47;68.16;100583.98;1783398;80;22448;-65
2021/12/28 05:55:07;;;;;;;18.95;11.25;;;;;;;-5.45;68.09;100578.82;1757112;81;21021;-66
2021/12/28 05:57:34;;;;;;;21.52;12.90;;;;;;;-5.42;67.98;100583.92;1749094;81;21037;-65
2021/12/28 06:00:00;;;;;;;19.12;11.22;;;;;;;-5.44;67.90;100586.52;1763387;81;21024;-65
2021/12/28 06:02:26;;;;;;;16.85;10.98;;;;;;;-5.43;67.84;100588.66;1790129;80;21509;-65
2021/12/28 06:04:53;;;;;;;17.02;11.48;;;;;;;-5.42;67.85;100581.35;1778990;80;21791;-64
2021/12/28 06:07:19;;;;;;;17.02;11.48;;;;;;;-5.44;67.65;100580.09;1761632;80;20984;-65
2021/12/28 06:09:47;;;;;;;17.55;10.58;;;;;;;-5.44;67.60;100578.80;1760852;81;21062;-65
2021/12/28 06:12:13;;;;;;;14.65;9.88;;;;;;;-5.45;67.53;100582.25;1757884;81;20967;-65
2021/12/28 06:14:40;;;;;;;15.48;9.93;;;;;;;-5.43;67.59;100584.80;1760764;81;21014;-65
2021/12/28 06:17:06;;;;;;;15.70;10.18;;;;;;;-5.42;67.48;100582.64;1754369;81;21820;-65
2021/12/28 06:19:32;;;;;;;16.60;9.75;;;;;;;-5.44;67.38;100590.38;1764152;80;20923;-65
2021/12/28 06:21:59;;;;;;;17.00;10.43;;;;;;;-5.44;67.36;100587.80;1789124;80;20976;-65
2021/12/28 06:24:25;;;;;;;16.12;10.35;;;;;;;-5.44;67.30;100594.24;1757767;81;21385;-65
2021/12/28 06:26:52;;;;;;;17.73;10.30;;;;;;;-5.46;67.12;100586.98;1756468;81;21055;-65
2021/12/28 06:29:19;;;;;;;16.07;9.93;;;;;;;-5.46;67.13;100597.27;1741846;82;21822;-65
2021/12/28 06:31:45;;;;;;;13.88;8.95;;;;;;;-5.45;67.14;100593.83;1769609;81;20983;-65
2021/12/28 06:34:13;;;;;;;15.78;10.10;;;;;;;-5.46;67.07;100588.27;1773427;81;21413;-66
2021/12/28 06:36:42;;;;;;;15.83;10.43;;;;;;;-5.50;66.90;100596.47;1743651;81;21019;-66
2021/12/28 06:39:10;;;;;;;16.02;9.88;;;;;;;-5.50;66.95;100601.61;1742738;82;21085;-65
2021/12/28 06:41:38;;;;;;;14.65;9.30;;;;;;;-5.48;66.99;100592.15;1742440;81;21829;-65
2021/12/28 06:44:07;;;;;;;13.18;9.13;;;;;;;-5.46;66.94;100589.55;1761440;81;20927;-65
2021/12/28 06:46:36;;;;;;;14.78;9.75;;;;;;;-5.44;66.92;100593.39;1757866;81;20964;-65
2021/12/28 06:49:03;;;;;;;17.32;11.20;;;;;;;-5.43;66.88;100590.80;1795315;79;20991;-65
2021/12/28 06:51:30;;;;;;;18.27;10.72;;;;;;;-5.42;66.77;100591.64;1760428;81;21545;-64
2021/12/28 06:53:57;;;;;;;20.80;12.45;;;;;;;-5.42;66.79;100587.35;1763970;81;21782;-65
2021/12/28 06:56:23;;;;;;;20.25;12.37;;;;;;;-5.41;66.61;100579.19;1758381;80;20988;-64
2021/12/28 06:58:50;;;;;;;20.50;13.15;;;;;;;-5.40;66.61;100578.32;1808706;79;21442;-65
2021/12/28 07:01:17;;;;;;;17.95;11.90;;;;;;;-5.39;66.65;100577.48;1795008;78;22430;-65
2021/12/28 07:03:44;;;;;;;20.17;11.80;;;;;;;-5.40;66.67;100572.77;1795050;79;20972;-64
2021/12/28 07:06:10;;;;;;;19.55;12.35;;;;;;;-5.38;66.59;100574.03;1768722;80;21813;-64
2021/12/28 07:08:37;;;;;;;20.12;12.18;;;;;;;-5.40;66.49;100564.16;1770419;80;21425;-65
2021/12/28 07:11:04;;;;;;;19.57;12.75;;;;;;;-5.39;66.43;100569.76;1763708;81;21041;-66
2021/12/28 07:13:31;;;;;;;19.60;11.80;;;;;;;-5.39;66.39;100564.61;1771217;81;20994;-64
2021/12/28 07:15:58;;;;;;;19.10;10.78;;;;;;;-5.38;66.30;100569.73;1767066;81;21562;-67
2021/12/28 07:18:24;;;;;;;17.32;10.28;;;;;;;-5.39;66.26;100568.03;1773367;81;21784;-67
2021/12/28 07:20:51;;;;;;;16.90;11.15;;;;;;;-5.40;66.22;100574.45;1755931;81;21074;-67
2021/12/28 07:23:17;;;;;;;15.90;10.05;;;;;;;-5.40;66.27;100571.48;1742787;82;21029;-66
2021/12/28 07:25:44;;;;;;;15.98;10.05;;;;;;;-5.39;66.17;100564.17;1742085;81;21417;-65
2021/12/28 07:28:10;;;;;;;14.38;8.98;;;;;;;-5.39;66.06;100568.03;1752335;81;20999;-65
2021/12/28 07:30:37;;;;;;;15.65;10.08;;;;;;;-5.39;65.96;100566.75;1757107;81;21806;-65
2021/12/28 07:33:04;;;;;;;14.28;10.00;;;;;;;-5.40;65.72;100561.19;1757157;81;20951;-66
2021/12/28 07:35:32;;;;;;;19.90;10.53;;;;;;;-5.42;65.72;100565.47;1751760;80;21067;-66
2021/12/28 07:37:58;;;;;;;13.98;9.13;;;;;;;-5.39;65.80;100559.46;1752342;81;21352;-66
2021/12/28 07:40:25;;;;;;;14.28;9.45;;;;;;;-5.35;65.79;100557.25;1757163;80;20949;-64
2021/12/28 07:42:51;;;;;;;17.02;10.50;;;;;;;-5.31;65.84;100564.05;1756129;81;22447;-64
2021/12/28 07:45:17;;;;;;;16.17;10.15;;;;;;;-5.30;65.49;100549.91;1730362;83;22264;-64
2021/12/28 07:47:45;;;;;;;17.05;10.00;;;;;;;-5.32;65.39;100552.91;1733922;82;21008;-65
2021/12/28 07:50:13;;;;;;;13.93;10.10;;;;;;;-5.29;65.39;100552.90;1730707;81;20988;-65
2021/12/28 07:52:44;;;;;;;15.68;10.25;;;;;;;-5.30;65.30;100542.19;1711536;82;21016;-66
2021/12/28 07:55:10;;;;;;;16.52;9.88;;;;;;;-5.30;65.28;100543.47;1737750;80;22493;-65
2021/12/28 07:57:38;;;;;;;14.60;10.18;;;;;;;-5.30;65.22;100538.33;1713659;81;21066;-65
2021/12/28 08:00:09;;;;;;;18.10;10.75;;;;;;;-5.31;65.10;100538.31;1702512;83;21361;-68
2021/12/28 08:02:43;;;;;;;17.50;10.75;;;;;;;-5.30;65.09;100535.75;1728506;83;20990;-66
2021/12/28 08:05:12;;;;;;;17.92;10.65;;;;;;;-5.30;64.85;100542.19;1730645;83;21005;-66
2021/12/28 08:07:38;;;;;;;16.17;10.68;;;;;;;-5.32;64.83;100531.03;1712524;83;22533;-67
2021/12/28 08:10:08;;;;;;;15.72;9.93;;;;;;;-5.30;64.72;100524.16;1714131;82;20945;-67
2021/12/28 08:12:36;;;;;;;16.25;10.45;;;;;;;-5.28;64.70;100519.84;1703049;83;21103;-68
2021/12/28 08:15:03;;;;;;;16.02;10.25;;;;;;;-5.26;64.36;100518.53;1723594;81;21044;-67
2021/12/28 08:17:31;;;;;;;18.32;10.40;;;;;;;-5.26;64.17;100514.67;1720804;83;21008;-66
2021/12/28 08:19:57;;;;;;;17.70;10.50;;;;;;;-5.26;64.20;100514.23;1726536;81;21836;-68
2021/12/28 08:22:24;;;;;;;19.02;9.98;;;;;;;-5.24;64.09;100504.76;1712389;82;21448;-68
2021/12/28 08:24:51;;;;;;;18.17;10.18;;;;;;;-5.20;64.01;100500.00;1725673;83;21044;-69
2021/12/28 08:27:17;;;;;;;16.73;8.90;;;;;;;-5.17;63.59;100497.81;1752614;79;20959;-67
2021/12/28 08:29:43;;;;;;;17.10;8.68;;;;;;;-5.16;63.29;100502.09;1749230;81;21019;-67
2021/12/28 08:32:10;;;;;;;14.23;8.63;;;;;;;-5.15;63.05;100497.79;1762004;79;22190;-68
2021/12/28 08:34:36;;;;;;;14.13;8.38;;;;;;;-5.14;62.93;100489.19;1787788;80;21054;-68
2021/12/28 08:37:03;;;;;;;16.85;8.73;;;;;;;-5.12;62.50;100484.86;1763428;81;20947;-68
2021/12/28 08:39:31;;;;;;;18.25;7.60;;;;;;;-5.15;62.34;100482.34;1763424;80;21382;-69
2021/12/28 08:41:57;;;;;;;13.70;8.58;;;;;;;-5.12;62.01;100476.70;1763218;81;20962;-68
2021/12/28 08:44:27;;;;;;;16.75;8.28;;;;;;;-5.12;61.96;100471.98;1792352;78;21808;-68
2021/12/28 08:46:52;;;;;;;16.85;8.20;;;;;;;-5.10;61.82;100480.56;1764005;80;22244;-68
2021/12/28 08:49:19;;;;;;;13.78;8.05;;;;;;;-5.09;61.60;100468.10;1775015;80;21014;-68
2021/12/28 08:51:45;;;;;;;14.87;7.75;;;;;;;-5.12;61.43;100459.95;1728628;81;20980;-68
2021/12/28 08:54:11;;;;;;;16.23;7.78;;;;;;;-5.12;61.44;100465.55;1751933;81;20995;-68
2021/12/28 08:56:38;;;;;;;19.62;7.45;;;;;;;-5.12;61.71;100462.53;1764068;81;21788;-67
2021/12/28 08:59:04;;;;;;;14.10;7.78;;;;;;;-5.12;61.94;100461.69;1735895;80;21179;-68
2021/12/28 09:01:32;;;;;;;18.10;8.28;;;;;;;-5.12;62.36;100465.11;1792302;78;21457;-68
2021/12/28 09:04:00;;;;;;;15.68;7.92;;;;;;;-5.14;62.68;100463.00;1768996;80;20984;-68
2021/12/28 09:06:28;;;;;;;15.18;7.67;;;;;;;-5.16;63.08;100456.17;1766394;79;20953;-69
2021/12/28 09:08:54;;;;;;;13.68;7.65;;;;;;;-5.20;63.51;100464.39;1786757;79;22792;-68
2021/12/28 09:11:21;;;;;;;16.45;7.50;;;;;;;-5.25;63.85;100457.16;1780768;79;21056;-68
2021/12/28 09:13:47;;;;;;;13.60;7.65;;;;;;;-5.28;64.32;100454.63;1762980;80;20970;-69
2021/12/28 09:16:15;;;;;;;15.20;7.60;;;;;;;-5.33;65.16;100448.23;1765778;80;21494;-68
2021/12/28 09:18:41;;;;;;;11.65;7.10;;;;;;;-5.41;65.66;100446.20;1772186;80;21059;-70
2021/12/28 09:21:08;;;;;;;13.43;7.47;;;;;;;-5.46;66.21;100444.13;1761055;81;21819;-67
2021/12/28 09:23:35;;;;;;;18.00;7.78;;;;;;;-5.49;66.70;100437.75;1768161;78;21430;-68
2021/12/28 09:26:01;;;;;;;12.25;6.95;;;;;;;-5.54;67.08;100440.37;1781822;78;21357;-67
2021/12/28 09:28:28;;;;;;;14.53;7.55;;;;;;;-5.55;67.37;100446.83;1731040;80;21028;-70
2021/12/28 09:30:54;;;;;;;12.68;7.70;;;;;;;-5.59;67.88;100439.59;1750965;81;21395;-68
2021/12/28 09:33:21;;;;;;;11.00;7.08;;;;;;;-5.65;68.26;100445.23;1760903;81;22788;-67
2021/12/28 09:35:47;;;;;;;14.07;7.60;;;;;;;-5.69;68.61;100440.58;1747739;81;21076;-68
2021/12/28 09:38:13;;;;;;;14.25;7.65;;;;;;;-5.70;68.98;100439.28;1778331;80;20908;-68
2021/12/28 09:40:40;;;;;;;13.68;7.97;;;;;;;-5.74;69.14;100437.63;1758885;80;20982;-69
2021/12/28 09:43:07;;;;;;;12.00;7.42;;;;;;;-5.73;69.44;100434.19;1785354;80;20912;-69
2021/12/28 09:45:34;;;;;;;12.93;7.85;;;;;;;-5.73;69.70;100426.47;1760353;81;22247;-71
2021/12/28 09:48:01;;;;;;;11.03;7.30;;;;;;;-5.73;69.86;100427.75;1789935;80;20994;-69
2021/12/28 09:50:27;;;;;;;13.18;7.72;;;;;;;-5.72;70.08;100425.16;1754607;81;20927;-69
2021/12/28 09:52:54;;;;;;;10.88;6.90;;;;;;;-5.72;70.22;100422.58;1768840;80;20935;-69
2021/12/28 09:55:23;;;;;;;14.78;7.80;;;;;;;-5.72;70.34;100420.45;1750788;81;21141;-70
2021/12/28 09:57:50;;;;;;;12.95;7.62;;;;;;;-5.76;70.46;100423.06;1783159;80;22485;-71
2021/12/28 10:00:17;;;;;;;12.68;7.92;;;;;;;-5.80;70.62;100419.25;1783824;80;20983;-70
2021/12/28 10:02:44;;;;;;;15.08;8.43;;;;;;;-5.80;70.88;100421.82;1746270;81;20947;-70
2021/12/28 10:05:18;;;;;;;12.15;7.97;;;;;;;-5.83;71.06;100408.56;1768708;78;20979;-70
2021/12/28 10:07:54;;;;;;;;;;;;;;;-5.79;71.25;100404.23;1742463;81;21068;-68
2021/12/28 10:10:21;;;;;;;12.65;7.33;;;;;;;-5.76;71.31;100406.78;1770335;79;21886;-69
2021/12/28 10:12:58;;;;;;;12.90;8.18;;;;;;;-5.76;71.38;100394.77;1789628;80;21070;-67
2021/12/28 10:15:29;;;;;;;12.63;7.22;;;;;;;-5.75;71.41;100386.62;1769496;79;20999;-69
2021/12/28 10:17:58;;;;;;;13.18;8.03;;;;;;;-5.75;71.46;100381.47;1774362;80;21374;-69
2021/12/28 10:20:32;;;;;;;12.75;7.35;;;;;;;-5.78;71.49;100377.66;1752767;81;21044;-68
2021/12/28 10:23:02;;;;;;;;;;;;;;;-5.79;71.65;100374.23;1768491;80;21814;-70
2021/12/28 10:25:35;;;;;;;11.00;6.85;;;;;;;-5.78;71.72;100376.37;1735045;81;20435;-68
2021/12/28 10:28:08;;;;;;;12.75;7.95;;;;;;;-5.75;71.80;100367.32;1760199;80;21493;-69
2021/12/28 10:30:40;;;;;;;12.60;7.45;;;;;;;-5.77;71.82;100370.36;1770859;80;21434;-69
2021/12/28 10:33:12;;;;;;;13.85;8.03;;;;;;;-5.84;71.84;100367.00;1741526;81;21047;-70
2021/12/28 10:35:42;;;;;;;15.03;8.00;;;;;;;-5.87;71.95;100365.77;1752588;81;21820;-69
2021/12/28 10:38:13;;;;;;;12.73;7.40;;;;;;;-5.85;72.09;100362.73;1753981;80;21024;-70
2021/12/28 10:40:42;;;;;;;12.33;7.53;;;;;;;-5.87;72.06;100356.77;1748157;81;21069;-70
2021/12/28 10:43:21;;;;;;;10.15;6.50;;;;;;;-5.83;72.14;100360.98;1790858;78;20927;-71
2021/12/28 10:45:51;;;;;;;12.07;7.55;;;;;;;-5.83;72.13;100350.70;1759827;81;20966;-70
2021/12/28 10:48:25;;;;;;;12.33;7.37;;;;;;;-5.91;72.16;100352.55;1759723;81;22558;-68
2021/12/28 10:51:09;;;;;;;12.00;8.08;;;;;;;-5.98;72.21;100349.66;1762778;80;20968;-68
2021/12/28 10:56:34;;;;;;;11.75;7.37;;;;;;;-5.94;72.54;100344.03;1760551;80;21450;-67
2021/12/28 10:59:01;;;;;;;13.80;7.17;;;;;;;-5.90;72.65;100336.20;1791983;80;20955;-66
2021/12/28 11:01:34;;;;;;;11.15;7.00;;;;;;;-5.93;72.68;100331.14;1760767;81;21879;-66
2021/12/28 11:04:11;;;;;;;12.60;6.75;;;;;;;-5.94;72.75;100319.60;1791430;80;21110;-66
2021/12/28 11:06:44;;;;;;;12.43;6.75;;;;;;;-5.94;72.95;100324.30;1757519;80;21045;-66
2021/12/28 11:09:15;;;;;;;13.03;6.85;;;;;;;-5.94;73.04;100326.88;1810983;79;20994;-66
2021/12/28 11:11:42;;;;;;;11.05;7.47;;;;;;;-5.97;73.18;100315.36;1805741;79;21429;-65
2021/12/28 11:14:15;;;;;;;9.70;6.62;;;;;;;-5.97;73.31;100313.22;1760636;80;21821;-65
2021/12/28 11:16:51;;;;;;;11.88;7.15;;;;;;;-5.95;73.43;100302.03;1792275;80;20999;-65
2021/12/28 11:19:29;;;;;;;11.53;7.17;;;;;;;-5.94;73.50;100305.02;1759132;80;21535;-66
2021/12/28 11:22:09;;;;;;;10.48;7.12;;;;;;;-5.90;73.60;100297.63;1790682;80;20995;-67
2021/12/28 11:24:40;;;;;;;13.45;7.87;;;;;;;-5.87;73.65;100298.89;1792407;79;20967;-66